Time;durP1;ratioP1;P1;durP2;ratioP2;P2;SDS_P1;SDS_P2;PMS_P1;PMS_P2;Temp;Humidity;BMP_temperature;BMP_pressure;BME280_temperature;BME280_humidity;BME280_pressure;Samples;Min_cycle;Max_cycle;Signal;HPM_P1;HPM_P2
2023/09/14 04:00:31;;;;;;;0.10;0.10;;;9.80;99.90;;;;;;5810039;23;20265;-71
2023/09/14 04:02:58;;;;;;;0.10;0.10;;;9.80;99.90;;;;;;4941338;28;20261;-72
2023/09/14 04:05:24;;;;;;;1.00;1.00;;;9.80;99.90;;;;;;4936383;29;20220;-72
2023/09/14 04:07:52;;;;;;;0.10;0.10;;;9.80;99.90;;;;;;4936316;29;20225;-72
2023/09/14 04:10:18;;;;;;;0.10;0.10;;;9.80;99.90;;;;;;4934980;29;20217;-72
2023/09/14 04:12:45;;;;;;;0.10;0.10;;;9.80;99.90;;;;;;4917461;29;20218;-72
2023/09/14 04:15:12;;;;;;;0.10;0.10;;;9.80;99.90;;;;;;4917768;29;20238;-72
2023/09/14 04:17:40;;;;;;;0.10;0.10;;;9.70;99.90;;;;;;4917380;29;20274;-72
2023/09/14 04:20:09;;;;;;;0.10;0.10;;;9.70;99.90;;;;;;4917102;29;20215;-72
2023/09/14 04:22:37;;;;;;;0.10;0.10;;;9.70;99.90;;;;;;4917547;29;20223;-73
2023/09/14 04:25:04;;;;;;;0.10;0.10;;;9.70;99.90;;;;;;4917380;29;20245;-72
2023/09/14 04:27:30;;;;;;;0.10;0.10;;;9.70;99.90;;;;;;4917269;29;20226;-71
2023/09/14 04:29:57;;;;;;;0.10;0.10;;;9.70;99.90;;;;;;4917060;29;20219;-71
2023/09/14 04:32:24;;;;;;;0.10;0.10;;;9.70;99.90;;;;;;4917158;29;20235;-71
2023/09/14 04:34:52;;;;;;;0.10;0.10;;;9.70;99.90;;;;;;4916911;29;20214;-72
2023/09/14 04:37:19;;;;;;;0.10;0.10;;;9.60;99.90;;;;;;4916816;29;20214;-72
2023/09/14 04:39:46;;;;;;;0.10;0.10;;;9.60;99.90;;;;;;4916969;29;20215;-72
2023/09/14 04:42:14;;;;;;;0.10;0.10;;;9.60;99.90;;;;;;4916896;29;20230;-71
2023/09/14 04:44:40;;;;;;;0.10;0.10;;;9.60;99.90;;;;;;4916945;29;20249;-72
2023/09/14 04:47:07;;;;;;;0.20;0.20;;;9.60;99.90;;;;;;4916797;29;20226;-71
2023/09/14 04:49:34;;;;;;;0.10;0.10;;;9.60;99.90;;;;;;4916479;29;20221;-69
2023/09/14 04:52:02;;;;;;;0.10;0.10;;;9.60;99.90;;;;;;4916907;29;20238;-72
2023/09/14 04:54:28;;;;;;;0.10;0.10;;;9.60;99.90;;;;;;4916738;29;20610;-72
2023/09/14 04:56:55;;;;;;;0.10;0.10;;;9.50;99.90;;;;;;4916705;29;20223;-72
2023/09/14 04:59:24;;;;;;;0.10;0.10;;;9.50;99.90;;;;;;4916480;29;20215;-71
2023/09/14 05:01:51;;;;;;;0.10;0.10;;;9.50;99.90;;;;;;4916397;29;20304;-71
2023/09/14 05:04:17;;;;;;;0.10;0.10;;;9.50;99.90;;;;;;4916473;29;20242;-72
2023/09/14 05:06:44;;;;;;;0.10;0.10;;;9.50;99.90;;;;;;4916952;29;20238;-72
2023/09/14 05:09:12;;;;;;;0.10;0.10;;;9.50;99.90;;;;;;4916656;29;20222;-72
2023/09/14 05:11:39;;;;;;;0.10;0.10;;;9.50;99.90;;;;;;4927930;29;20233;-72
2023/09/14 05:14:06;;;;;;;0.10;0.10;;;9.60;99.90;;;;;;4935798;29;20233;-72
2023/09/14 05:16:32;;;;;;;0.10;0.10;;;9.60;99.90;;;;;;4935822;29;20245;-72
2023/09/14 05:18:59;;;;;;;0.10;0.10;;;9.60;99.90;;;;;;4935739;29;20220;-72
2023/09/14 05:21:26;;;;;;;0.10;0.10;;;9.60;99.90;;;;;;4935487;29;20238;-72
2023/09/14 05:23:52;;;;;;;0.10;0.10;;;9.60;99.90;;;;;;4935551;29;20221;-72
2023/09/14 05:26:20;;;;;;;0.10;0.10;;;9.60;99.90;;;;;;4935584;29;20217;-73
2023/09/14 05:28:47;;;;;;;0.10;0.10;;;9.60;99.90;;;;;;4935328;29;20241;-71
2023/09/14 05:31:14;;;;;;;0.10;0.10;;;9.60;99.90;;;;;;4935327;29;20601;-71
2023/09/14 05:33:40;;;;;;;0.10;0.10;;;9.70;99.90;;;;;;4935514;29;20222;-71
2023/09/14 05:36:07;;;;;;;0.10;0.10;;;9.70;99.90;;;;;;4935629;29;20213;-71
2023/09/14 05:38:34;;;;;;;0.10;0.10;;;9.70;99.90;;;;;;4935175;29;20236;-71
2023/09/14 05:41:00;;;;;;;0.10;0.10;;;9.70;99.90;;;;;;4935033;29;20649;-71
2023/09/14 05:43:28;;;;;;;0.10;0.10;;;9.80;99.90;;;;;;4935054;29;20221;-71
2023/09/14 05:45:55;;;;;;;0.10;0.10;;;9.90;99.90;;;;;;4935469;29;20229;-71
2023/09/14 05:48:22;;;;;;;0.10;0.10;;;9.90;99.90;;;;;;4935436;29;20210;-71
2023/09/14 05:50:48;;;;;;;0.40;0.40;;;9.90;99.90;;;;;;4935532;29;20234;-71
2023/09/14 05:53:15;;;;;;;0.10;0.10;;;10.00;99.90;;;;;;4935368;29;20221;-71
2023/09/14 05:55:42;;;;;;;0.10;0.10;;;10.00;99.90;;;;;;4935422;29;20584;-71
2023/09/14 05:58:08;;;;;;;0.10;0.10;;;10.10;99.90;;;;;;4934913;29;20214;-71
2023/09/14 06:00:36;;;;;;;0.10;0.10;;;10.10;99.90;;;;;;4934746;29;20238;-72
2023/09/14 06:03:03;;;;;;;0.10;0.10;;;10.20;99.90;;;;;;4920743;29;20587;-71
2023/09/14 06:05:30;;;;;;;0.10;0.10;;;10.30;99.90;;;;;;4916413;29;20234;-71
2023/09/14 06:07:57;;;;;;;0.20;0.20;;;10.30;99.90;;;;;;4916681;29;20214;-72
2023/09/14 06:10:24;;;;;;;0.10;0.10;;;10.40;99.90;;;;;;4915969;29;20665;-72
2023/09/14 06:12:51;;;;;;;0.10;0.10;;;10.50;99.90;;;;;;4916799;29;20272;-71
2023/09/14 06:15:18;;;;;;;0.10;0.10;;;10.50;99.90;;;;;;4916820;29;20678;-71
2023/09/14 06:17:46;;;;;;;0.10;0.10;;;10.60;99.90;;;;;;4916661;29;20582;-71
2023/09/14 06:20:13;;;;;;;0.10;0.10;;;10.70;99.90;;;;;;4915850;29;20218;-72
2023/09/14 06:22:40;;;;;;;0.10;0.10;;;10.70;99.90;;;;;;4916026;29;20666;-71
2023/09/14 06:25:07;;;;;;;0.10;0.10;;;10.80;99.90;;;;;;4918026;29;20230;-71
2023/09/14 06:27:34;;;;;;;0.10;0.10;;;10.80;99.90;;;;;;4919507;29;20218;-71
2023/09/14 06:30:00;;;;;;;0.10;0.10;;;10.90;99.90;;;;;;4919395;29;20600;-72
2023/09/14 06:32:28;;;;;;;0.10;0.10;;;10.90;99.90;;;;;;4920233;29;20245;-71
2023/09/14 06:34:56;;;;;;;0.10;0.10;;;11.00;99.90;;;;;;4919418;29;20302;-71
2023/09/14 06:37:23;;;;;;;0.10;0.10;;;11.10;99.90;;;;;;4919321;29;20219;-71
2023/09/14 06:39:49;;;;;;;0.10;0.10;;;11.10;99.90;;;;;;4919002;29;20221;-71
2023/09/14 06:42:16;;;;;;;0.10;0.10;;;11.20;99.90;;;;;;4919032;29;20725;-72
2023/09/14 06:44:43;;;;;;;0.10;0.10;;;11.20;99.90;;;;;;4919491;29;20723;-71
2023/09/14 06:47:10;;;;;;;0.10;0.10;;;11.30;99.90;;;;;;4919402;29;20250;-71
2023/09/14 06:49:37;;;;;;;0.10;0.10;;;11.40;99.90;;;;;;4930170;29;20240;-72
2023/09/14 06:52:05;;;;;;;0.10;0.10;;;11.40;99.90;;;;;;4938948;29;20242;-71
2023/09/14 06:54:32;;;;;;;0.10;0.10;;;11.50;99.90;;;;;;4938888;29;20226;-72
2023/09/14 06:56:59;;;;;;;0.10;0.10;;;11.60;99.90;;;;;;4937881;29;20224;-71
2023/09/14 06:59:25;;;;;;;0.10;0.10;;;11.60;99.90;;;;;;4937985;29;20213;-71
2023/09/14 07:01:52;;;;;;;0.10;0.10;;;11.70;99.90;;;;;;4937673;29;20249;-71
2023/09/14 07:04:19;;;;;;;0.10;0.10;;;11.70;99.90;;;;;;4937783;29;20213;-72
2023/09/14 07:06:46;;;;;;;0.10;0.10;;;11.80;99.90;;;;;;4937751;29;20585;-72
2023/09/14 07:09:14;;;;;;;0.10;0.10;;;11.80;99.90;;;;;;4937579;29;20241;-72
2023/09/14 07:11:41;;;;;;;0.10;0.10;;;11.90;99.90;;;;;;4937564;29;20265;-72
2023/09/14 07:14:08;;;;;;;0.10;0.10;;;12.00;99.90;;;;;;4937831;29;20209;-71
2023/09/14 07:16:34;;;;;;;2.05;2.05;;;12.10;99.90;;;;;;4938489;29;20206;-71
2023/09/14 07:19:02;;;;;;;0.10;0.10;;;12.10;99.90;;;;;;4938119;29;20250;-72
2023/09/14 07:21:32;;;;;;;0.10;0.10;;;12.10;99.90;;;;;;4937730;29;20233;-70
2023/09/14 07:23:59;;;;;;;0.10;0.10;;;12.20;99.90;;;;;;4938580;29;20696;-71
2023/09/14 07:26:27;;;;;;;0.10;0.10;;;12.20;99.90;;;;;;4937477;29;20497;-71
2023/09/14 07:28:54;;;;;;;0.10;0.10;;;12.30;99.90;;;;;;4937630;29;20237;-71
2023/09/14 07:31:21;;;;;;;0.10;0.10;;;12.30;99.90;;;;;;4937015;29;20485;-70
2023/09/14 07:33:48;;;;;;;0.10;0.10;;;12.40;99.90;;;;;;4937426;29;20469;-69
2023/09/14 07:36:14;;;;;;;0.10;0.10;;;12.50;99.90;;;;;;4936378;29;20472;-71
2023/09/14 07:38:41;;;;;;;0.10;0.10;;;12.50;99.90;;;;;;4937223;29;20472;-71
2023/09/14 07:41:08;;;;;;;0.10;0.10;;;12.50;99.90;;;;;;4936700;29;20485;-71
2023/09/14 07:43:36;;;;;;;0.10;0.10;;;12.60;99.90;;;;;;4937052;29;20214;-71
2023/09/14 07:46:02;;;;;;;0.10;0.10;;;12.60;99.90;;;;;;4936930;29;20541;-71
2023/09/14 07:48:29;;;;;;;0.10;0.10;;;12.70;99.90;;;;;;4936950;29;20474;-71
2023/09/14 07:50:56;;;;;;;0.10;0.10;;;12.70;99.90;;;;;;4936748;29;20485;-71
2023/09/14 07:53:23;;;;;;;0.10;0.10;;;12.80;99.90;;;;;;4936987;29;20464;-71
2023/09/14 07:55:52;;;;;;;0.10;0.10;;;12.80;99.90;;;;;;4937085;29;20466;-71
2023/09/14 07:58:19;;;;;;;0.10;0.10;;;12.90;99.90;;;;;;4936961;29;20492;-71
2023/09/14 08:00:48;;;;;;;0.10;0.10;;;12.90;99.90;;;;;;4936401;29;20780;-71
2023/09/14 08:03:14;;;;;;;0.10;0.10;;;13.00;99.90;;;;;;4936493;29;20470;-71
2023/09/14 08:05:41;;;;;;;0.10;0.10;;;13.00;99.90;;;;;;4936958;29;20497;-71
2023/09/14 08:08:09;;;;;;;0.10;0.10;;;13.10;99.90;;;;;;4936781;29;20474;-71
2023/09/14 08:10:36;;;;;;;0.10;0.10;;;13.10;99.90;;;;;;4936548;29;20238;-71
2023/09/14 08:13:03;;;;;;;0.10;0.10;;;13.20;99.90;;;;;;4936449;29;20461;-71
2023/09/14 08:15:30;;;;;;;0.10;0.10;;;13.20;99.90;;;;;;4936388;29;20461;-71
2023/09/14 08:17:58;;;;;;;0.10;0.10;;;13.30;99.90;;;;;;4936359;29;20496;-71
2023/09/14 08:20:25;;;;;;;0.10;0.10;;;13.30;99.90;;;;;;4936050;29;20474;-71
2023/09/14 08:22:51;;;;;;;0.10;0.10;;;13.40;99.90;;;;;;4936473;29;20472;-71
2023/09/14 08:25:18;;;;;;;0.10;0.10;;;13.50;99.90;;;;;;4936203;29;20489;-72
2023/09/14 08:27:45;;;;;;;0.10;0.10;;;13.50;99.90;;;;;;4936184;29;20469;-71
2023/09/14 08:30:12;;;;;;;0.10;0.10;;;13.60;99.90;;;;;;4935636;29;20486;-71
2023/09/14 08:32:39;;;;;;;0.10;0.10;;;13.70;99.90;;;;;;4936317;29;20467;-71
2023/09/14 08:35:24;;;;;;;0.10;0.10;;;13.80;99.90;;;;;;4936589;29;20973;-71
2023/09/14 08:37:52;;;;;;;0.10;0.10;;;13.80;99.90;;;;;;4936795;29;20465;-71
2023/09/14 08:40:19;;;;;;;0.10;0.10;;;13.80;99.90;;;;;;4936369;29;20472;-71
2023/09/14 08:42:50;;;;;;;0.10;0.10;;;13.90;99.90;;;;;;4936362;29;20520;-71
2023/09/14 08:45:20;;;;;;;0.10;0.10;;;13.90;99.90;;;;;;4936255;29;20489;-71
2023/09/14 08:47:48;;;;;;;0.10;0.10;;;14.00;99.90;;;;;;4936436;29;20466;-71
2023/09/14 08:50:16;;;;;;;0.10;0.10;;;14.00;99.90;;;;;;4935968;29;20473;-72
2023/09/14 08:52:45;;;;;;;0.10;0.10;;;14.10;99.90;;;;;;4936402;29;20473;-69
2023/09/14 08:55:13;;;;;;;0.10;0.10;;;14.20;99.90;;;;;;4935960;29;20477;-70
2023/09/14 08:57:42;;;;;;;0.10;0.10;;;14.20;99.90;;;;;;4936811;29;20474;-69
2023/09/14 09:00:14;;;;;;;0.10;0.10;;;14.30;99.90;;;;;;4936245;29;20478;-70
2023/09/14 09:02:43;;;;;;;0.10;0.10;;;14.40;99.90;;;;;;4936411;29;20461;-70
2023/09/14 09:05:11;;;;;;;0.10;0.10;;;14.50;99.90;;;;;;4936011;29;20466;-70
2023/09/14 09:07:39;;;;;;;0.10;0.10;;;14.50;99.90;;;;;;4935772;29;20465;-70
2023/09/14 09:10:11;;;;;;;0.10;0.10;;;14.60;99.90;;;;;;4935951;29;20462;-70
2023/09/14 09:12:38;;;;;;;0.10;0.10;;;14.70;99.90;;;;;;4936172;29;20496;-71
2023/09/14 09:15:07;;;;;;;0.10;0.10;;;14.70;99.90;;;;;;4936285;29;20470;-70
2023/09/14 09:17:38;;;;;;;0.10;0.10;;;14.80;99.90;;;;;;4936092;29;20528;-71
2023/09/14 09:20:14;;;;;;;0.10;0.10;;;14.80;99.90;;;;;;4935715;29;20462;-70
2023/09/14 09:22:42;;;;;;;0.10;0.10;;;15.00;99.90;;;;;;4936079;29;20465;-70
2023/09/14 09:25:10;;;;;;;0.10;0.10;;;15.00;99.90;;;;;;4936151;29;20524;-70
2023/09/14 09:27:38;;;;;;;0.10;0.10;;;15.10;99.90;;;;;;4935905;29;20465;-71
2023/09/14 09:30:06;;;;;;;0.20;0.20;;;15.10;99.90;;;;;;4935468;29;20948;-70
2023/09/14 09:32:33;;;;;;;0.10;0.10;;;15.20;99.90;;;;;;4935518;29;20489;-70
2023/09/14 09:35:17;;;;;;;0.10;0.10;;;15.20;99.90;;;;;;4935945;29;20975;-70
2023/09/14 09:37:44;;;;;;;0.10;0.10;;;15.30;99.90;;;;;;4935742;29;20461;-70
2023/09/14 09:40:15;;;;;;;0.10;0.10;;;15.30;99.90;;;;;;4935495;29;20465;-71
2023/09/14 09:42:42;;;;;;;0.10;0.10;;;15.40;99.90;;;;;;4935559;29;20465;-71
2023/09/14 09:45:10;;;;;;;0.10;0.10;;;15.50;99.90;;;;;;4935631;29;20469;-71
2023/09/14 09:47:37;;;;;;;0.10;0.10;;;15.50;99.90;;;;;;4939551;29;20473;-71
2023/09/14 09:50:06;;;;;;;0.10;0.10;;;15.60;99.90;;;;;;4935440;29;20847;-71
2023/09/14 09:52:33;;;;;;;0.10;0.10;;;15.60;99.90;;;;;;4935361;29;20490;-69
2023/09/14 09:55:00;;;;;;;0.10;0.10;;;15.70;99.90;;;;;;4935430;29;20911;-70
2023/09/14 09:57:30;;;;;;;0.10;0.10;;;15.70;99.90;;;;;;4936772;29;20466;-70
2023/09/14 09:59:57;;;;;;;0.10;0.10;;;15.80;99.90;;;;;;4935005;29;20844;-70
2023/09/14 10:02:31;;;;;;;0.10;0.10;;;15.80;99.90;;;;;;4934923;29;20493;-70
2023/09/14 10:04:59;;;;;;;0.10;0.10;;;15.90;99.90;;;;;;4934803;29;20521;-70
2023/09/14 10:07:26;;;;;;;0.10;0.10;;;15.90;99.90;;;;;;4934762;29;20497;-70
2023/09/14 10:09:54;;;;;;;0.10;0.10;;;16.00;99.90;;;;;;4934450;29;20470;-70
2023/09/14 10:12:25;;;;;;;0.10;0.10;;;16.10;99.90;;;;;;4934281;29;20999;-70
2023/09/14 10:14:55;;;;;;;0.10;0.10;;;16.10;99.90;;;;;;4963833;23;20842;-71
2023/09/14 10:17:23;;;;;;;0.10;0.10;;;16.20;99.90;;;;;;4943420;29;20990;-71
2023/09/14 10:19:51;;;;;;;0.10;0.10;;;16.20;99.90;;;;;;4945127;28;20466;-69
2023/09/14 10:22:19;;;;;;;0.10;0.10;;;16.30;99.90;;;;;;4944895;28;20464;-71
2023/09/14 10:24:46;;;;;;;0.10;0.10;;;16.20;99.90;;;;;;4928917;29;20492;-71
2023/09/14 10:27:15;;;;;;;0.10;0.10;;;16.30;99.90;;;;;;4914826;29;21008;-71
2023/09/14 10:29:43;;;;;;;0.10;0.10;;;16.40;99.90;;;;;;4914731;29;20486;-70
2023/09/14 10:32:15;;;;;;;0.10;0.10;;;16.40;99.90;;;;;;4915190;29;20474;-69
2023/09/14 10:34:42;;;;;;;0.10;0.10;;;16.50;99.90;;;;;;4926715;29;20502;-69
2023/09/14 10:37:11;;;;;;;0.10;0.10;;;16.60;99.90;;;;;;4933893;29;20466;-69
2023/09/14 10:39:38;;;;;;;0.20;0.20;;;16.60;99.90;;;;;;4933464;29;20473;-70
2023/09/14 10:42:05;;;;;;;0.10;0.10;;;16.70;99.90;;;;;;4933890;29;20470;-70
2023/09/14 10:44:33;;;;;;;0.10;0.10;;;16.80;99.90;;;;;;4934023;29;20501;-70
2023/09/14 10:47:03;;;;;;;0.10;0.10;;;16.80;99.90;;;;;;4927610;29;20909;-70
2023/09/14 10:49:34;;;;;;;0.10;0.10;;;16.90;99.90;;;;;;4932719;29;20467;-70
2023/09/14 10:52:01;;;;;;;0.10;0.10;;;16.90;99.90;;;;;;4933909;29;20471;-70
2023/09/14 10:54:31;;;;;;;0.10;0.10;;;17.00;99.90;;;;;;4934025;29;20488;-71
2023/09/14 10:57:00;;;;;;;0.10;0.10;;;17.00;99.90;;;;;;4933737;29;20471;-71
2023/09/14 10:59:49;;;;;;;0.10;0.10;;;17.10;99.90;;;;;;4933662;29;20463;-71
2023/09/14 11:02:52;;;;;;;0.10;0.10;;;17.30;99.90;;;;;;4933667;29;20531;-71
2023/09/14 11:05:23;;;;;;;0.10;0.10;;;17.20;99.90;;;;;;4933612;29;20495;-71
2023/09/14 11:07:58;;;;;;;0.10;0.10;;;17.20;99.90;;;;;;4933721;29;20509;-70
2023/09/14 11:10:24;;;;;;;0.20;0.20;;;17.10;99.90;;;;;;4934341;29;20475;-70
2023/09/14 11:12:52;;;;;;;0.10;0.10;;;17.00;99.90;;;;;;4937184;29;20467;-70
2023/09/14 11:15:21;;;;;;;0.10;0.10;;;16.90;99.90;;;;;;4937046;29;20496;-72
2023/09/14 11:17:49;;;;;;;0.10;0.10;;;16.90;99.90;;;;;;4937440;29;20465;-71
2023/09/14 11:20:42;;;;;;;0.10;0.10;;;16.80;99.90;;;;;;4937151;29;20559;-71
2023/09/14 11:23:09;;;;;;;0.10;0.10;;;16.90;99.90;;;;;;4937129;29;20943;-71
2023/09/14 11:25:37;;;;;;;0.10;0.10;;;17.00;99.90;;;;;;4926449;29;20466;-71
2023/09/14 11:28:05;;;;;;;0.10;0.10;;;17.10;99.90;;;;;;4918210;29;20778;-70
2023/09/14 11:30:33;;;;;;;0.10;0.10;;;17.30;99.90;;;;;;4917835;29;20477;-69
2023/09/14 11:33:02;;;;;;;0.10;0.10;;;17.40;99.90;;;;;;4917880;29;20473;-69
2023/09/14 11:35:37;;;;;;;0.10;0.10;;;17.50;99.90;;;;;;4917574;29;20495;-69
2023/09/14 11:38:16;;;;;;;0.10;0.10;;;17.60;99.90;;;;;;4918063;29;20469;-69
2023/09/14 11:40:43;;;;;;;0.10;0.10;;;17.70;99.90;;;;;;4929756;29;20858;-71
2023/09/14 11:43:25;;;;;;;0.10;0.10;;;17.60;99.90;;;;;;4936876;29;20471;-70
2023/09/14 11:46:00;;;;;;;0.10;0.10;;;17.60;99.90;;;;;;4937237;29;21127;-70
2023/09/14 11:48:29;;;;;;;0.10;0.10;;;17.60;99.90;;;;;;4936931;29;20471;-70
2023/09/14 11:51:02;;;;;;;0.10;0.10;;;17.70;99.90;;;;;;4936464;29;20469;-71
2023/09/14 11:53:33;;;;;;;0.10;0.10;;;17.90;99.90;;;;;;4936905;29;20926;-70
2023/09/14 11:56:00;;;;;;;0.10;0.10;;;18.00;99.90;;;;;;4936500;29;20475;-70
2023/09/14 11:58:27;;;;;;;0.10;0.10;;;18.10;99.90;;;;;;4918513;29;21004;-70
2023/09/14 12:00:57;;;;;;;0.10;0.10;;;18.30;99.90;;;;;;4925158;29;20489;-70
2023/09/14 12:03:24;;;;;;;0.10;0.10;;;18.40;99.90;;;;;;4917103;29;20478;-70
2023/09/14 12:05:54;;;;;;;0.10;0.10;;;18.40;99.90;;;;;;4922320;29;20462;-70
2023/09/14 12:08:21;;;;;;;0.10;0.10;;;18.30;99.90;;;;;;4919689;29;20842;-70
2023/09/14 12:10:55;;;;;;;0.10;0.10;;;18.30;99.90;;;;;;4917099;29;20470;-70
2023/09/14 12:13:22;;;;;;;0.10;0.10;;;18.50;99.90;;;;;;4918384;29;20470;-70
2023/09/14 12:15:58;;;;;;;0.20;0.20;;;18.60;99.90;;;;;;4923452;29;20467;-70
2023/09/14 12:18:38;;;;;;;0.10;0.10;;;18.60;99.90;;;;;;4924839;29;20470;-71
2023/09/14 12:21:05;;;;;;;0.10;0.10;;;18.60;99.90;;;;;;4931613;29;20476;-70
2023/09/14 12:23:32;;;;;;;0.10;0.10;;;18.60;99.90;;;;;;4935081;29;20492;-70
2023/09/14 12:26:00;;;;;;;0.10;0.10;;;18.50;99.90;;;;;;4936056;29;20923;-71
2023/09/14 12:28:27;;;;;;;0.10;0.10;;;18.40;99.90;;;;;;4927879;29;20466;-70
2023/09/14 12:30:54;;;;;;;0.10;0.10;;;18.30;99.90;;;;;;4927655;29;20465;-70
2023/09/14 12:33:20;;;;;;;0.10;0.10;;;18.30;99.90;;;;;;4926889;29;20473;-71
2023/09/14 12:35:47;;;;;;;0.10;0.10;;;18.20;99.90;;;;;;4924569;29;21270;-70
2023/09/14 12:38:14;;;;;;;0.10;0.10;;;18.20;99.90;;;;;;4916905;29;20558;-70
2023/09/14 12:40:42;;;;;;;0.10;0.10;;;18.00;99.90;;;;;;4923629;29;20450;-70
2023/09/14 12:43:10;;;;;;;0.10;0.10;;;18.00;99.90;;;;;;4924323;29;20492;-71
2023/09/14 12:45:37;;;;;;;0.10;0.10;;;18.00;99.90;;;;;;4924751;29;20511;-71
2023/09/14 12:48:06;;;;;;;0.10;0.10;;;18.00;99.90;;;;;;4916414;29;20509;-70
2023/09/14 12:50:35;;;;;;;0.10;0.10;;;17.90;99.90;;;;;;4916587;29;20474;-70
2023/09/14 12:53:07;;;;;;;0.10;0.10;;;17.80;99.90;;;;;;4916754;29;20473;-70
2023/09/14 12:55:39;;;;;;;0.10;0.10;;;17.80;99.90;;;;;;4924613;29;20561;-70
2023/09/14 12:58:06;;;;;;;0.10;0.10;;;17.70;99.90;;;;;;4916742;29;20496;-70
2023/09/14 13:00:34;;;;;;;0.10;0.10;;;17.60;99.90;;;;;;4924032;29;20484;-70
2023/09/14 13:03:07;;;;;;;0.10;0.10;;;17.50;99.90;;;;;;4924424;29;20469;-70
2023/09/14 13:05:34;;;;;;;0.10;0.10;;;17.50;99.90;;;;;;4924702;29;20780;-69
2023/09/14 13:08:02;;;;;;;0.10;0.10;;;17.60;99.90;;;;;;4924089;29;20497;-70
2023/09/14 13:10:30;;;;;;;0.10;0.10;;;17.70;99.90;;;;;;4926283;29;20478;-70
2023/09/14 13:12:58;;;;;;;0.10;0.10;;;17.80;99.90;;;;;;4927331;29;20465;-70
2023/09/14 13:15:27;;;;;;;0.10;0.10;;;17.90;99.90;;;;;;4917471;29;20498;-70
2023/09/14 13:17:57;;;;;;;0.10;0.10;;;18.00;99.90;;;;;;4916286;29;20474;-70
2023/09/14 13:20:25;;;;;;;0.10;0.10;;;18.00;99.90;;;;;;4915959;29;20496;-70
2023/09/14 13:22:51;;;;;;;0.10;0.10;;;18.10;99.90;;;;;;4923805;29;20921;-70
2023/09/14 13:25:18;;;;;;;0.10;0.10;;;18.10;99.90;;;;;;4915716;29;20856;-70
2023/09/14 13:27:45;;;;;;;0.10;0.10;;;18.20;99.90;;;;;;4916079;29;20498;-70
2023/09/14 13:30:13;;;;;;;0.60;0.60;;;18.20;99.90;;;;;;4915544;29;20466;-70
2023/09/14 13:32:40;;;;;;;0.10;0.10;;;18.40;99.90;;;;;;4927489;29;20466;-70
2023/09/14 13:35:10;;;;;;;0.10;0.10;;;18.30;99.90;;;;;;4933982;29;20496;-70
2023/09/14 13:37:38;;;;;;;0.10;0.10;;;18.30;99.90;;;;;;4934754;29;20467;-70
2023/09/14 13:40:08;;;;;;;0.10;0.10;;;18.20;99.90;;;;;;4934587;29;20475;-70
2023/09/14 13:42:37;;;;;;;0.10;0.10;;;18.00;99.90;;;;;;4934462;29;20867;-72
2023/09/14 13:45:04;;;;;;;0.10;0.10;;;18.00;99.90;;;;;;4934526;29;20512;-71
2023/09/14 13:47:31;;;;;;;0.10;0.10;;;17.90;99.90;;;;;;4934716;29;20563;-71
2023/09/14 13:49:58;;;;;;;0.97;0.97;;;17.80;99.90;;;;;;4934328;29;20907;-71
2023/09/14 13:52:26;;;;;;;0.10;0.10;;;17.70;99.90;;;;;;4917182;29;20470;-71
2023/09/14 13:54:53;;;;;;;0.10;0.10;;;17.70;99.90;;;;;;4915583;29;20493;-71
2023/09/14 13:57:19;;;;;;;0.10;0.10;;;17.70;99.90;;;;;;4915453;29;20480;-71
2023/09/14 13:59:49;;;;;;;0.10;0.10;;;17.60;99.90;;;;;;4915535;29;20983;-71
2023/09/14 14:02:15;;;;;;;0.10;0.10;;;17.60;99.90;;;;;;4915641;29;20822;-71
2023/09/14 14:04:42;;;;;;;0.10;0.10;;;17.50;99.90;;;;;;4915357;29;20488;-71
2023/09/14 14:07:10;;;;;;;0.10;0.10;;;17.40;99.90;;;;;;4915417;29;20524;-71
2023/09/14 14:09:40;;;;;;;0.10;0.10;;;17.40;99.90;;;;;;4918686;29;20469;-69
2023/09/14 14:12:07;;;;;;;0.10;0.10;;;17.30;99.90;;;;;;4919397;29;21006;-70
2023/09/14 14:14:34;;;;;;;0.20;0.20;;;17.20;99.90;;;;;;4915408;29;20497;-71
2023/09/14 14:17:01;;;;;;;0.10;0.10;;;17.20;99.90;;;;;;4915586;29;20634;-70
2023/09/14 14:19:28;;;;;;;0.10;0.10;;;17.10;99.90;;;;;;4915322;29;20837;-70
2023/09/14 14:21:55;;;;;;;0.10;0.10;;;17.10;99.90;;;;;;4915198;29;20472;-70
2023/09/14 14:24:21;;;;;;;0.10;0.10;;;17.10;99.90;;;;;;4914970;29;20508;-70
2023/09/14 14:26:51;;;;;;;0.10;0.10;;;17.00;99.90;;;;;;4920250;29;20493;-70
2023/09/14 14:29:18;;;;;;;0.10;0.10;;;17.00;99.90;;;;;;4917971;29;20469;-70
2023/09/14 14:31:44;;;;;;;0.10;0.10;;;16.90;99.90;;;;;;4915277;29;20533;-71
2023/09/14 14:34:12;;;;;;;0.10;0.10;;;16.90;99.90;;;;;;4914982;29;20489;-71
2023/09/14 14:36:39;;;;;;;0.10;0.10;;;16.90;99.90;;;;;;4914994;29;20472;-70
2023/09/14 14:39:06;;;;;;;0.10;0.10;;;16.80;99.90;;;;;;4914927;29;20471;-71
2023/09/14 14:41:33;;;;;;;0.10;0.10;;;16.80;99.90;;;;;;4915069;29;20474;-70
2023/09/14 14:44:01;;;;;;;0.10;0.10;;;16.80;99.90;;;;;;4915576;29;20510;-70
2023/09/14 14:46:27;;;;;;;0.10;0.10;;;16.90;99.90;;;;;;4918067;29;20471;-71
2023/09/14 14:48:54;;;;;;;0.10;0.10;;;17.00;99.90;;;;;;4919928;29;20507;-70
2023/09/14 14:51:21;;;;;;;0.10;0.10;;;17.00;99.90;;;;;;4919315;29;20476;-70
2023/09/14 14:53:48;;;;;;;0.10;0.10;;;17.10;99.90;;;;;;4919113;29;20490;-71
2023/09/14 14:56:15;;;;;;;0.10;0.10;;;17.20;99.90;;;;;;4919342;29;20848;-71
2023/09/14 14:58:42;;;;;;;0.10;0.10;;;17.30;99.90;;;;;;4918828;29;20473;-70
2023/09/14 15:01:11;;;;;;;0.10;0.10;;;17.30;99.90;;;;;;4918574;29;20492;-70
2023/09/14 15:03:38;;;;;;;0.10;0.10;;;17.30;99.90;;;;;;4918795;29;20517;-70
2023/09/14 15:06:07;;;;;;;0.10;0.10;;;17.40;99.90;;;;;;4918482;29;20576;-70
2023/09/14 15:08:34;;;;;;;0.10;0.10;;;17.40;99.90;;;;;;4918347;29;20527;-70
2023/09/14 15:11:00;;;;;;;0.10;0.10;;;17.40;99.90;;;;;;4918158;29;20474;-70
2023/09/14 15:13:27;;;;;;;0.10;0.10;;;17.40;99.90;;;;;;4918143;29;20473;-70
2023/09/14 15:15:55;;;;;;;0.10;0.10;;;17.40;99.90;;;;;;4923772;29;20801;-70
2023/09/14 15:18:23;;;;;;;0.10;0.10;;;17.40;99.90;;;;;;4920272;29;20465;-70
2023/09/14 15:20:50;;;;;;;0.10;0.10;;;17.50;99.90;;;;;;4918111;29;20476;-70
2023/09/14 15:23:17;;;;;;;0.10;0.10;;;17.40;99.90;;;;;;4917946;29;20480;-69
2023/09/14 15:25:43;;;;;;;0.10;0.10;;;17.50;99.90;;;;;;4918326;29;20474;-70
2023/09/14 15:28:10;;;;;;;0.10;0.10;;;17.40;99.90;;;;;;4917954;29;21033;-70
2023/09/14 15:30:37;;;;;;;0.10;0.10;;;17.50;99.90;;;;;;4917717;29;20488;-69
2023/09/14 15:33:04;;;;;;;0.10;0.10;;;17.50;99.90;;;;;;4917752;29;20477;-70
2023/09/14 15:35:32;;;;;;;0.10;0.10;;;17.50;99.90;;;;;;4917987;29;20498;-70
2023/09/14 15:37:58;;;;;;;0.10;0.10;;;17.50;99.90;;;;;;4918001;29;20473;-70
2023/09/14 15:40:25;;;;;;;0.10;0.10;;;17.50;99.90;;;;;;4917753;29;20533;-70
2023/09/14 15:42:53;;;;;;;0.10;0.10;;;17.50;99.90;;;;;;4918200;29;20480;-70
2023/09/14 15:45:20;;;;;;;0.10;0.10;;;17.50;99.90;;;;;;4918556;29;20834;-70
2023/09/14 15:47:47;;;;;;;0.10;0.10;;;17.50;99.90;;;;;;4917775;29;20493;-70
2023/09/14 15:50:15;;;;;;;0.10;0.10;;;17.50;99.90;;;;;;4917770;29;20495;-70
2023/09/14 15:52:44;;;;;;;0.10;0.10;;;17.60;99.90;;;;;;4917915;29;20508;-70
2023/09/14 15:55:11;;;;;;;0.10;0.10;;;17.60;99.90;;;;;;4917590;29;20999;-75
2023/09/14 15:57:38;;;;;;;0.10;0.10;;;17.60;99.90;;;;;;4916824;29;20473;-71
2023/09/14 16:00:05;;;;;;;0.10;0.10;;;17.60;99.90;;;;;;4917138;29;20524;-70
2023/09/14 16:02:34;;;;;;;0.10;0.10;;;17.60;99.90;;;;;;4917634;29;20473;-70
2023/09/14 16:05:02;;;;;;;0.10;0.10;;;17.60;99.90;;;;;;4917516;29;20846;-70
2023/09/14 16:07:29;;;;;;;0.10;0.10;;;17.60;99.90;;;;;;4919406;29;20493;-71
2023/09/14 16:09:57;;;;;;;0.10;0.10;;;17.60;99.90;;;;;;4922408;29;20468;-70
2023/09/14 16:12:24;;;;;;;0.10;0.10;;;17.50;99.90;;;;;;4925621;29;20480;-70
2023/09/14 16:14:50;;;;;;;0.10;0.10;;;17.50;99.90;;;;;;4956033;23;20503;-68
2023/09/14 16:17:17;;;;;;;0.10;0.10;;;17.50;99.90;;;;;;4955404;28;20827;-68
2023/09/14 16:19:45;;;;;;;0.10;0.10;;;17.40;99.90;;;;;;4955571;28;20474;-68
2023/09/14 16:22:12;;;;;;;0.10;0.10;;;17.40;99.90;;;;;;4955341;28;20468;-68
2023/09/14 16:24:38;;;;;;;0.10;0.10;;;17.30;99.90;;;;;;4947506;28;20492;-68
2023/09/14 16:27:06;;;;;;;0.10;0.10;;;17.30;99.90;;;;;;4936007;29;20890;-68
2023/09/14 16:29:35;;;;;;;0.10;0.10;;;17.30;99.90;;;;;;4936054;29;20619;-68
2023/09/14 16:32:02;;;;;;;0.10;0.10;;;17.30;99.90;;;;;;4935830;29;20468;-68
2023/09/14 16:34:28;;;;;;;0.10;0.10;;;17.20;99.90;;;;;;4935731;29;20545;-68
2023/09/14 16:36:56;;;;;;;0.10;0.10;;;17.20;99.90;;;;;;4935749;29;20541;-68
2023/09/14 16:39:23;;;;;;;0.10;0.10;;;17.10;99.90;;;;;;4935440;29;20469;-68
2023/09/14 16:41:49;;;;;;;0.10;0.10;;;17.10;99.90;;;;;;4935378;29;20475;-68
2023/09/14 16:44:17;;;;;;;0.10;0.10;;;17.10;99.90;;;;;;4935340;29;20491;-68
2023/09/14 16:46:45;;;;;;;0.10;0.10;;;17.00;99.90;;;;;;4935527;29;20471;-68
2023/09/14 16:49:19;;;;;;;0.10;0.10;;;17.00;99.90;;;;;;4935493;29;20547;-68
2023/09/14 16:51:46;;;;;;;0.10;0.10;;;17.00;99.90;;;;;;4935138;29;20902;-68